TimeHST,TemperatureF,Dew PointF,Humidity,Sea Level PressureIn,VisibilityMPH,Wind Direction,Wind SpeedMPH,Gust SpeedMPH,PrecipitationIn,Events,Conditions,WindDirDegrees,DateUTC
12:16 AM,33.8,26.6,75,30.03,10.0,East,19.6,-,N/A,,Overcast,80,2013-02-17 10:16:00
12:36 AM,33.8,28.4,81,30.02,10.0,East,16.1,-,N/A,,Overcast,80,2013-02-17 10:36:00
12:56 AM,33.8,26.6,75,30.03,10.0,East,19.6,-,N/A,,Overcast,90,2013-02-17 10:56:00
1:16 AM,33.8,28.4,81,30.02,10.0,East,19.6,-,N/A,,Overcast,100,2013-02-17 11:16:00
1:36 AM,33.8,28.4,81,30.02,10.0,East,20.7,24.2,N/A,,Overcast,100,2013-02-17 11:36:00
1:56 AM,33.8,28.4,81,30.02,10.0,East,19.6,23.0,N/A,,Overcast,100,2013-02-17 11:56:00
2:16 AM,35.6,28.4,75,30.02,10.0,ESE,23.0,-,N/A,,Overcast,110,2013-02-17 12:16:00
2:36 AM,35.6,28.4,75,30.03,10.0,ESE,20.7,-,N/A,,Overcast,120,2013-02-17 12:36:00
2:56 AM,33.8,28.4,81,30.01,5.0,East,24.2,27.6,N/A,,Overcast,100,2013-02-17 12:56:00
3:16 AM,33.8,28.4,81,30.00,2.5,ESE,23.0,27.6,N/A,,Overcast,110,2013-02-17 13:16:00
3:36 AM,33.8,30.2,87,30.00,2.5,ESE,21.9,-,N/A,,Overcast,110,2013-02-17 13:36:00
3:56 AM,33.8,30.2,87,30.00,2.5,East,19.6,-,N/A,,Overcast,100,2013-02-17 13:56:00
4:16 AM,33.8,30.2,87,29.98,3.0,East,19.6,-,N/A,,Overcast,100,2013-02-17 14:16:00
4:36 AM,33.8,30.2,87,29.97,2.0,East,19.6,-,N/A,,Overcast,100,2013-02-17 14:36:00
4:56 AM,33.8,32.0,93,29.95,1.8,East,20.7,25.3,N/A,,Overcast,90,2013-02-17 14:56:00
6:16 AM,33.8,32.0,93,29.93,3.0,East,18.4,24.2,N/A,,Overcast,90,2013-02-17 16:16:00
6:36 AM,33.8,32.0,93,29.91,2.5,East,18.4,-,N/A,,Overcast,90,2013-02-17 16:36:00
6:56 AM,35.6,33.8,93,29.90,5.0,East,19.6,28.8,N/A,,Overcast,90,2013-02-17 16:56:00
7:16 AM,35.6,33.8,93,29.91,6.0,East,16.1,23.0,N/A,,Overcast,90,2013-02-17 17:16:00
7:36 AM,35.6,33.8,93,29.90,4.0,ESE,12.7,-,N/A,,Overcast,110,2013-02-17 17:36:00
7:56 AM,37.4,35.6,93,29.88,4.0,ESE,18.4,21.9,N/A,,Overcast,120,2013-02-17 17:56:00
8:16 AM,37.4,35.6,93,29.87,4.0,ESE,18.4,24.2,N/A,,Overcast,120,2013-02-17 18:16:00
8:36 AM,37.4,35.6,93,29.87,4.0,ESE,13.8,-,N/A,,Overcast,120,2013-02-17 18:36:00
8:56 AM,37.4,35.6,93,29.86,2.5,SE,16.1,-,N/A,,Overcast,130,2013-02-17 18:56:00
9:16 AM,37.4,35.6,93,29.85,2.0,SE,21.9,27.6,N/A,,Overcast,130,2013-02-17 19:16:00
9:36 AM,37.4,35.6,93,29.85,1.8,SE,17.3,24.2,N/A,,Overcast,130,2013-02-17 19:36:00
9:56 AM,37.4,37.4,100,29.85,1.8,SE,15.0,21.9,N/A,,Overcast,130,2013-02-17 19:56:00
10:16 AM,39.2,37.4,93,29.84,2.0,SE,15.0,-,N/A,,Overcast,130,2013-02-17 20:16:00
10:36 AM,39.2,37.4,93,29.83,1.8,SE,15.0,-,N/A,,Overcast,130,2013-02-17 20:36:00
10:56 AM,39.2,37.4,93,29.82,1.5,SE,16.1,20.7,N/A,,Overcast,130,2013-02-17 20:56:00
11:16 AM,39.2,37.4,93,29.81,1.2,SE,12.7,-,N/A,,Overcast,130,2013-02-17 21:16:00
11:36 AM,39.2,37.4,93,29.80,1.2,SE,12.7,-,N/A,,Overcast,130,2013-02-17 21:36:00
11:56 AM,39.2,37.4,93,29.77,1.5,SE,11.5,-,N/A,,Overcast,130,2013-02-17 21:56:00
12:16 PM,39.2,37.4,93,29.76,0.8,SE,11.5,-,N/A,,Overcast,130,2013-02-17 22:16:00
12:36 PM,39.2,37.4,93,29.74,0.8,SE,10.4,-,N/A,,Overcast,130,2013-02-17 22:36:00
12:56 PM,39.2,37.4,93,29.73,0.8,ESE,8.1,-,N/A,,Overcast,110,2013-02-17 22:56:00
1:16 PM,39.2,37.4,93,29.70,1.5,ESE,9.2,-,N/A,,Overcast,110,2013-02-17 23:16:00
1:36 PM,39.2,37.4,93,29.68,2.0,East,12.7,-,N/A,,Overcast,100,2013-02-17 23:36:00
1:56 PM,39.2,37.4,93,29.65,1.5,ESE,13.8,17.3,N/A,,Overcast,110,2013-02-17 23:56:00
2:16 PM,39.2,37.4,93,29.62,0.8,East,12.7,-,N/A,,Overcast,100,2013-02-18 00:16:00
2:36 PM,39.2,39.2,100,29.59,1.0,East,16.1,-,N/A,,Overcast,90,2013-02-18 00:36:00
2:56 PM,39.2,37.4,93,29.56,1.8,East,13.8,-,N/A,,Overcast,90,2013-02-18 00:56:00
3:16 PM,39.2,39.2,100,29.54,2.0,East,16.1,19.6,N/A,,Overcast,90,2013-02-18 01:16:00
3:36 PM,39.2,37.4,93,29.50,3.0,East,15.0,-,N/A,,Overcast,90,2013-02-18 01:36:00
3:56 PM,41.0,41.0,100,29.47,-9999.0,ESE,13.8,-,N/A,,Unknown,110,2013-02-18 01:56:00
4:16 PM,41.0,39.2,93,29.43,2.5,East,17.3,-,N/A,,Overcast,100,2013-02-18 02:16:00
4:36 PM,42.8,39.2,87,29.39,3.0,East,21.9,28.8,N/A,,Overcast,100,2013-02-18 02:36:00
4:56 PM,42.8,39.2,87,29.36,2.5,ESE,25.3,29.9,N/A,,Overcast,110,2013-02-18 02:56:00
5:16 PM,42.8,39.2,87,29.31,3.0,ESE,24.2,27.6,N/A,,Overcast,110,2013-02-18 03:16:00
5:36 PM,42.8,39.2,87,29.28,3.0,ESE,26.5,35.7,N/A,,Overcast,110,2013-02-18 03:36:00
5:56 PM,42.8,39.2,87,29.26,2.5,ESE,28.8,42.6,N/A,,Overcast,120,2013-02-18 03:56:00
6:16 PM,42.8,39.2,87,29.20,2.5,ESE,24.2,32.2,N/A,,Overcast,120,2013-02-18 04:16:00
6:36 PM,42.8,39.2,87,29.18,1.8,ESE,25.3,39.1,N/A,,Overcast,120,2013-02-18 04:36:00
6:56 PM,44.6,39.2,81,29.15,1.0,SE,28.8,36.8,N/A,,Overcast,130,2013-02-18 04:56:00
7:16 PM,44.6,41.0,87,29.13,1.8,SE,26.5,36.8,N/A,,Overcast,130,2013-02-18 05:16:00
7:36 PM,44.6,39.2,81,29.12,1.5,SE,19.6,27.6,N/A,,Overcast,140,2013-02-18 05:36:00
7:56 PM,44.6,41.0,87,29.11,1.8,SE,21.9,27.6,N/A,,Overcast,130,2013-02-18 05:56:00
8:16 PM,44.6,41.0,87,29.08,2.5,SE,17.3,26.5,N/A,,Overcast,130,2013-02-18 06:16:00
8:36 PM,46.4,42.8,87,29.07,2.0,SSE,25.3,36.8,N/A,,Overcast,160,2013-02-18 06:36:00
8:56 PM,46.4,42.8,87,29.06,2.0,SSE,31.1,36.8,N/A,,Overcast,160,2013-02-18 06:56:00
9:16 PM,44.6,42.8,93,29.04,2.5,SSE,28.8,39.1,N/A,,Overcast,160,2013-02-18 07:16:00
9:36 PM,44.6,42.8,93,29.03,2.5,SSE,34.5,46.0,N/A,,Overcast,160,2013-02-18 07:36:00
9:56 PM,44.6,42.8,93,29.01,2.5,South,33.4,51.8,N/A,,Overcast,170,2013-02-18 07:56:00
10:16 PM,42.8,41.0,93,29.01,2.5,South,40.3,52.9,N/A,,Overcast,170,2013-02-18 08:16:00
10:36 PM,42.8,41.0,93,29.02,5.0,South,40.3,49.5,N/A,,Overcast,170,2013-02-18 08:36:00
10:56 PM,42.8,39.2,87,29.03,3.0,South,34.5,47.2,N/A,,Overcast,170,2013-02-18 08:56:00
11:16 PM,42.8,39.2,87,29.04,5.0,South,32.2,50.6,N/A,,Overcast,180,2013-02-18 09:16:00
11:36 PM,41.0,37.4,87,29.04,5.0,South,35.7,46.0,N/A,,Overcast,180,2013-02-18 09:36:00
11:56 PM,41.0,37.4,87,29.07,5.0,South,34.5,47.2,N/A,,Overcast,170,2013-02-18 09:56:00